createdAt,value
2022-12-24T00:00:00.300Z,10.1
2022-12-24T00:05:01.335Z,10.1
2022-12-24T00:10:00.231Z,10.1
2022-12-24T00:15:00.192Z,10.1
2022-12-24T00:20:00.164Z,10
2022-12-24T00:25:00.244Z,10
2022-12-24T00:30:00.249Z,10
2022-12-24T00:35:00.252Z,10
2022-12-24T00:40:00.235Z,9.9
2022-12-24T00:45:00.309Z,9.9
2022-12-24T00:50:00.278Z,9.9
2022-12-24T00:55:00.271Z,9.8
2022-12-24T01:00:00.210Z,9.8
2022-12-24T01:05:00.235Z,9.8
2022-12-24T01:10:00.275Z,9.8
2022-12-24T01:15:00.230Z,9.8
2022-12-24T01:20:00.220Z,9.8
2022-12-24T01:25:00.164Z,9.9
2022-12-24T01:30:00.304Z,9.9
2022-12-24T01:35:00.281Z,9.9
2022-12-24T01:40:00.235Z,9.9
2022-12-24T01:45:00.249Z,9.9
2022-12-24T01:50:00.334Z,9.9
2022-12-24T01:55:00.302Z,9.9
2022-12-24T02:00:00.231Z,9.9
2022-12-24T02:05:00.268Z,9.8
2022-12-24T02:10:00.292Z,9.8
2022-12-24T02:15:00.260Z,9.8
2022-12-24T02:20:00.259Z,9.8
2022-12-24T02:25:00.247Z,9.8
2022-12-24T02:30:00.208Z,9.8
2022-12-24T02:35:00.224Z,9.8
2022-12-24T02:40:00.251Z,9.8
2022-12-24T02:45:00.300Z,9.8
2022-12-24T02:50:00.260Z,9.8
2022-12-24T02:55:00.266Z,9.8
2022-12-24T03:00:00.189Z,9.8
2022-12-24T03:05:00.246Z,9.8
2022-12-24T03:10:00.281Z,9.8
2022-12-24T03:15:00.327Z,9.8
2022-12-24T03:20:00.222Z,9.8
2022-12-24T03:25:00.232Z,9.8
2022-12-24T03:30:00.302Z,9.8
2022-12-24T03:35:00.156Z,9.8
2022-12-24T03:40:00.246Z,9.8
2022-12-24T03:45:00.281Z,9.8
2022-12-24T03:50:00.239Z,9.7
2022-12-24T03:55:00.228Z,9.7
2022-12-24T04:00:00.286Z,9.7
2022-12-24T04:05:00.280Z,9.7
2022-12-24T04:10:00.220Z,9.7
2022-12-24T04:15:00.208Z,9.8
2022-12-24T04:20:00.245Z,9.8
2022-12-24T04:25:00.300Z,9.8
2022-12-24T04:30:00.240Z,9.8
2022-12-24T04:35:00.228Z,9.8
2022-12-24T04:40:00.242Z,9.8
2022-12-24T04:45:00.217Z,9.8
2022-12-24T04:50:00.242Z,9.8
2022-12-24T04:55:00.266Z,9.8
2022-12-24T05:00:00.253Z,9.8
2022-12-24T05:05:00.187Z,9.8
2022-12-24T05:10:00.237Z,9.8
2022-12-24T05:15:00.160Z,9.9
2022-12-24T05:20:00.278Z,9.9
2022-12-24T05:25:00.234Z,9.9
2022-12-24T05:30:00.260Z,9.9
2022-12-24T05:35:00.223Z,9.9
2022-12-24T05:40:00.244Z,9.9
2022-12-24T05:45:00.155Z,9.9
2022-12-24T05:50:00.235Z,9.9
2022-12-24T05:55:00.219Z,9.9
2022-12-24T06:00:00.316Z,9.9
2022-12-24T06:05:00.350Z,9.9
2022-12-24T06:10:00.261Z,9.9
2022-12-24T06:15:00.218Z,9.9
2022-12-24T06:20:00.243Z,9.9
2022-12-24T06:25:00.251Z,9.9
2022-12-24T06:30:00.259Z,9.9
2022-12-24T06:35:00.297Z,9.9
2022-12-24T06:40:00.287Z,9.9
2022-12-24T06:45:07.438Z,9.9
2022-12-24T06:50:00.228Z,9.9
2022-12-24T06:55:00.292Z,9.9
2022-12-24T07:00:00.266Z,9.9
2022-12-24T07:05:00.286Z,9.9
2022-12-24T07:10:00.278Z,10
2022-12-24T07:15:00.288Z,10
2022-12-24T07:20:00.242Z,10
2022-12-24T07:25:00.222Z,10
2022-12-24T07:30:00.286Z,10
2022-12-24T07:35:00.299Z,10
2022-12-24T07:40:00.238Z,10
2022-12-24T07:45:00.231Z,10
2022-12-24T07:50:00.298Z,10
2022-12-24T07:55:00.218Z,10.1
2022-12-24T08:00:00.265Z,10.1
2022-12-24T08:05:00.211Z,10.1
2022-12-24T08:10:00.270Z,10.1
2022-12-24T08:15:00.296Z,10.1
2022-12-24T08:20:00.245Z,10.1
2022-12-24T08:25:00.203Z,10.1
2022-12-24T08:30:00.293Z,10.2
2022-12-24T08:35:00.275Z,10.2
2022-12-24T08:40:00.219Z,10.2
2022-12-24T08:45:00.213Z,10.2
2022-12-24T08:50:00.259Z,10.2
2022-12-24T08:55:00.251Z,10.2
2022-12-24T09:00:00.249Z,10.2
2022-12-24T09:05:00.216Z,10.3
2022-12-24T09:10:00.197Z,10.3
2022-12-24T09:15:03.709Z,10.3
2022-12-24T09:20:00.226Z,10.3
2022-12-24T09:25:00.250Z,10.3
2022-12-24T09:30:00.227Z,10.4
2022-12-24T09:35:00.224Z,10.4
2022-12-24T09:40:00.289Z,10.4
2022-12-24T09:45:00.211Z,10.4
2022-12-24T09:50:00.288Z,10.5
2022-12-24T09:55:00.236Z,10.5
2022-12-24T10:00:00.239Z,10.5
2022-12-24T10:05:00.243Z,10.5
2022-12-24T10:10:00.244Z,10.6
2022-12-24T10:15:00.190Z,10.6
2022-12-24T10:20:00.168Z,10.6
2022-12-24T10:25:00.287Z,10.6
2022-12-24T10:30:00.228Z,10.6
2022-12-24T10:35:00.278Z,10.6
2022-12-24T10:40:00.250Z,10.6
2022-12-24T10:45:00.191Z,10.7
2022-12-24T10:50:00.278Z,10.7
2022-12-24T10:55:00.194Z,10.7
2022-12-24T11:00:00.198Z,10.8
2022-12-24T11:05:00.287Z,10.8
2022-12-24T11:10:00.304Z,10.9
2022-12-24T11:15:00.234Z,10.9
2022-12-24T11:20:00.188Z,11
2022-12-24T11:25:00.301Z,11
2022-12-24T11:30:00.388Z,11
2022-12-24T11:35:00.241Z,11
2022-12-24T11:40:00.249Z,11
2022-12-24T11:45:00.231Z,11.1
2022-12-24T11:50:17.552Z,11.1
2022-12-24T11:55:00.223Z,11.1
2022-12-24T12:00:00.256Z,11.2
2022-12-24T12:05:00.242Z,11.2
2022-12-24T12:10:00.261Z,11.2
2022-12-24T12:15:00.255Z,11.2
2022-12-24T12:20:00.279Z,11.2
2022-12-24T12:25:00.284Z,11.2
2022-12-24T12:30:00.272Z,11.2
2022-12-24T12:35:00.294Z,11.2
2022-12-24T12:40:00.298Z,11.2
2022-12-24T12:45:00.250Z,11.2
2022-12-24T12:50:00.261Z,11.1
2022-12-24T12:55:00.272Z,11.1
2022-12-24T13:00:00.682Z,11.1
2022-12-24T13:05:00.250Z,11.1
2022-12-24T13:10:00.289Z,11.1
2022-12-24T13:15:00.238Z,11.1
2022-12-24T13:20:00.231Z,11.1
2022-12-24T13:25:00.234Z,11.1
2022-12-24T13:30:08.836Z,11.1
2022-12-24T13:35:00.220Z,11.1
2022-12-24T13:40:00.257Z,11.1
2022-12-24T13:45:00.297Z,11.1
2022-12-24T13:50:00.179Z,11.1
2022-12-24T13:55:00.243Z,11
2022-12-24T14:00:00.283Z,11.1
2022-12-24T14:05:00.269Z,11.1
2022-12-24T14:10:00.276Z,11.1
2022-12-24T14:15:00.241Z,11.1
2022-12-24T14:20:00.284Z,11.1
2022-12-24T14:25:00.281Z,11.1
2022-12-24T14:30:00.273Z,11.1
2022-12-24T14:35:00.288Z,11.1
2022-12-24T14:40:00.269Z,11
2022-12-24T14:45:00.313Z,11
2022-12-24T14:50:00.215Z,11
2022-12-24T14:55:00.211Z,10.9
2022-12-24T15:00:00.238Z,10.9
2022-12-24T15:05:00.311Z,10.8
2022-12-24T15:10:00.243Z,10.8
2022-12-24T15:15:00.224Z,10.7
2022-12-24T15:20:00.281Z,10.7
2022-12-24T15:25:00.303Z,10.7
2022-12-24T15:30:00.287Z,10.6
2022-12-24T15:35:00.243Z,10.6
2022-12-24T15:40:00.711Z,10.6
2022-12-24T15:45:00.281Z,10.6
2022-12-24T15:50:00.456Z,10.6
2022-12-24T15:55:00.304Z,10.5
2022-12-24T16:00:00.248Z,10.5
2022-12-24T16:05:00.254Z,10.5
2022-12-24T16:10:00.264Z,10.4
2022-12-24T16:15:00.225Z,10.4
2022-12-24T16:20:00.362Z,10.3
2022-12-24T16:25:00.369Z,10.3
2022-12-24T16:30:00.494Z,10.2
2022-12-24T16:35:00.243Z,10.2
2022-12-24T16:40:00.337Z,10.1
2022-12-24T16:45:00.354Z,10.1
2022-12-24T16:50:00.263Z,10
2022-12-24T16:55:00.274Z,9.9
2022-12-24T17:00:00.320Z,9.8
2022-12-24T17:05:00.265Z,9.8
2022-12-24T17:10:00.307Z,9.8
2022-12-24T17:15:00.274Z,9.7
2022-12-24T17:20:00.267Z,9.7
2022-12-24T17:25:00.281Z,9.6
2022-12-24T17:30:00.240Z,9.6
2022-12-24T17:35:00.387Z,9.5
2022-12-24T17:40:00.301Z,9.5
2022-12-24T17:45:00.267Z,9.4
2022-12-24T17:50:00.251Z,9.4
2022-12-24T17:55:00.236Z,9.3
2022-12-24T18:00:00.252Z,9.3
2022-12-24T18:05:00.227Z,9.3
2022-12-24T18:10:00.188Z,9.2
2022-12-24T18:15:00.316Z,9.2
2022-12-24T18:20:00.248Z,9.2
2022-12-24T18:25:00.250Z,9
2022-12-24T18:30:00.238Z,9
2022-12-24T18:35:00.236Z,8.9
2022-12-24T18:40:00.259Z,8.9
2022-12-24T18:45:00.218Z,8.8
2022-12-24T18:50:00.273Z,8.8
2022-12-24T18:55:00.277Z,8.7
2022-12-24T19:00:00.297Z,8.6
2022-12-24T19:05:00.271Z,8.5
2022-12-24T19:10:00.259Z,8.4
2022-12-24T19:15:00.212Z,8.3
2022-12-24T19:20:00.267Z,8.2
2022-12-24T19:25:00.311Z,8.1
2022-12-24T19:30:00.280Z,8
2022-12-24T19:35:00.277Z,7.9
2022-12-24T19:40:00.276Z,7.8
2022-12-24T19:45:00.189Z,7.7
2022-12-24T19:50:00.247Z,7.6
2022-12-24T19:55:00.268Z,7.6
2022-12-24T20:00:00.283Z,7.5
2022-12-24T20:05:00.228Z,7.5
2022-12-24T20:10:00.260Z,7.4
2022-12-24T20:15:00.164Z,7.3
2022-12-24T20:20:00.172Z,7.3
2022-12-24T20:25:00.220Z,7.2
2022-12-24T20:30:00.230Z,7.2
2022-12-24T20:35:00.179Z,7.2
2022-12-24T20:40:00.178Z,7.1
2022-12-24T20:45:00.154Z,7.1
2022-12-24T20:50:00.246Z,7.1
2022-12-24T20:55:00.265Z,7.1
2022-12-24T21:00:00.302Z,7.1
2022-12-24T21:05:02.429Z,7
2022-12-24T21:10:00.280Z,7
2022-12-24T21:15:00.287Z,7
2022-12-24T21:20:00.170Z,6.9
2022-12-24T21:25:00.280Z,6.9
2022-12-24T21:30:00.218Z,6.9
2022-12-24T21:35:00.200Z,6.9
2022-12-24T21:40:00.229Z,6.9
2022-12-24T21:45:00.253Z,6.8
2022-12-24T21:50:00.172Z,6.8
2022-12-24T21:55:00.182Z,6.8
2022-12-24T22:00:00.199Z,6.8
2022-12-24T22:05:00.160Z,6.8
2022-12-24T22:10:00.159Z,6.8
2022-12-24T22:15:00.259Z,6.8
2022-12-24T22:20:00.175Z,6.8
2022-12-24T22:25:00.202Z,6.8
2022-12-24T22:30:00.218Z,6.9
2022-12-24T22:35:00.248Z,6.9
2022-12-24T22:40:00.224Z,6.9
2022-12-24T22:45:00.253Z,7
2022-12-24T22:50:00.220Z,7
2022-12-24T22:55:00.270Z,7
2022-12-24T23:00:00.242Z,7
2022-12-24T23:05:00.196Z,7
2022-12-24T23:10:00.259Z,6.9
2022-12-24T23:15:00.244Z,6.9
2022-12-24T23:20:00.192Z,6.9
2022-12-24T23:25:00.231Z,6.8
2022-12-24T23:30:00.239Z,6.8
2022-12-24T23:35:00.257Z,6.7
2022-12-24T23:40:00.228Z,6.7
2022-12-24T23:45:00.275Z,6.6
2022-12-24T23:50:00.227Z,6.5
2022-12-24T23:55:00.223Z,6.4
